Time;durP1;ratioP1;P1;durP2;ratioP2;P2;SDS_P1;SDS_P2;PMS_P1;PMS_P2;Temp;Humidity;BMP_temperature;BMP_pressure;BME280_temperature;BME280_humidity;BME280_pressure;Samples;Min_cycle;Max_cycle;Signal;HPM_P1;HPM_P2
2023/01/29 00:03:17;;;;;;;5.43;3.37;;;-1.70;1.00;;;;;;8268085;28;20776;-68
2023/01/29 00:07:18;;;;;;;3.40;2.80;;;-1.70;1.00;;;;;;8266256;28;20193;-68
2023/01/29 00:11:19;;;;;;;5.60;2.90;;;-1.60;1.00;;;;;;8272791;28;20605;-68
2023/01/29 00:15:20;;;;;;;3.60;2.73;;;-1.50;1.00;;;;;;8267365;28;20190;-68
2023/01/29 00:19:21;;;;;;;5.27;3.60;;;-1.50;1.00;;;;;;8267503;28;20540;-67
2023/01/29 00:23:22;;;;;;;5.67;3.37;;;-1.50;1.00;;;;;;8263568;28;20216;-67
2023/01/29 00:27:23;;;;;;;5.07;3.83;;;-1.50;1.00;;;;;;8268014;28;20193;-67
2023/01/29 00:31:24;;;;;;;4.63;3.40;;;-1.40;99.90;;;;;;8264130;28;20193;-68
2023/01/29 00:35:25;;;;;;;5.07;3.37;;;-1.40;99.90;;;;;;8266530;28;20234;-68
2023/01/29 00:39:37;;;;;;;5.50;3.17;;;-1.40;99.90;;;;;;8264559;28;20229;-68
2023/01/29 00:47:57;;;;;;;5.70;3.50;;;-1.40;99.90;;;;;;8261728;28;20271;-68
2023/01/29 00:56:17;;;;;;;7.40;5.00;;;-1.40;99.90;;;;;;8265608;28;20204;-68
2023/01/29 01:00:18;;;;;;;7.80;4.57;;;-1.40;99.90;;;;;;8263944;28;20244;-68
2023/01/29 01:04:19;;;;;;;6.73;4.90;;;-1.40;99.90;;;;;;8262925;28;20212;-68
2023/01/29 01:12:39;;;;;;;7.03;4.60;;;-1.50;99.90;;;;;;8262091;28;20209;-68
2023/01/29 01:16:40;;;;;;;8.33;4.80;;;-1.60;99.90;;;;;;8264359;28;20285;-68
2023/01/29 01:20:41;;;;;;;8.97;4.77;;;-1.60;99.90;;;;;;8263866;28;20223;-68
2023/01/29 01:24:41;;;;;;;7.17;4.77;;;-1.60;99.90;;;;;;8266966;28;20209;-68
2023/01/29 01:28:42;;;;;;;8.53;5.63;;;-1.50;99.90;;;;;;8270063;28;20190;-68
2023/01/29 01:32:43;;;;;;;7.73;5.63;;;-1.50;99.90;;;;;;8269091;28;20245;-68
2023/01/29 01:36:44;;;;;;;8.50;6.23;;;-1.60;99.90;;;;;;8262517;28;20261;-68
2023/01/29 01:40:45;;;;;;;10.13;6.57;;;-1.60;99.90;;;;;;8269833;28;20232;-68
2023/01/29 01:44:58;;;;;;;10.23;6.90;;;-1.60;99.90;;;;;;8262924;28;20218;-67
2023/01/29 01:49:20;;;;;;;12.03;6.77;;;-1.60;99.90;;;;;;8266832;28;20193;-68
2023/01/29 01:53:29;;;;;;;12.13;6.53;;;-1.60;99.90;;;;;;8259600;28;20430;-68
2023/01/29 01:57:31;;;;;;;11.23;6.37;;;-1.70;99.90;;;;;;8267314;28;20279;-68
2023/01/29 02:01:32;;;;;;;9.43;6.00;;;-1.70;99.90;;;;;;8261920;28;20568;-67
2023/01/29 02:10:00;;;;;;;10.50;5.90;;;-1.70;99.90;;;;;;8259896;28;20617;-68
2023/01/29 02:14:01;;;;;;;10.93;6.77;;;-1.70;99.90;;;;;;8262558;28;20216;-68
2023/01/29 02:18:02;;;;;;;10.07;6.00;;;-1.70;99.90;;;;;;8263405;28;20188;-67
2023/01/29 02:22:40;;;;;;;10.97;6.00;;;-1.80;99.90;;;;;;8267200;28;20216;-67
2023/01/29 02:27:00;;;;;;;11.50;6.13;;;-1.90;99.90;;;;;;8267402;28;20189;-67
2023/01/29 02:31:22;;;;;;;10.70;5.70;;;-2.00;99.90;;;;;;8261839;28;20193;-68
2023/01/29 02:35:36;;;;;;;11.37;6.50;;;-2.00;99.90;;;;;;8270710;28;20235;-68
2023/01/29 02:40:09;;;;;;;8.83;6.20;;;-2.00;1.00;;;;;;8269077;28;20216;-68
2023/01/29 02:44:10;;;;;;;10.10;5.60;;;-2.00;1.00;;;;;;8272068;28;20209;-67
2023/01/29 02:48:24;;;;;;;9.37;6.17;;;-2.00;1.00;;;;;;8272845;28;20191;-67
2023/01/29 02:52:36;;;;;;;8.97;5.90;;;-2.00;1.00;;;;;;8271165;28;20191;-68
2023/01/29 02:56:52;;;;;;;9.80;5.93;;;-2.10;1.00;;;;;;8262986;28;20213;-67
2023/01/29 03:00:57;;;;;;;7.97;5.87;;;-2.20;1.00;;;;;;8266050;28;20204;-68
2023/01/29 03:05:01;;;;;;;10.13;7.13;;;-2.40;1.00;;;;;;8264504;28;20206;-67
2023/01/29 03:09:15;;;;;;;9.30;5.73;;;-2.50;1.00;;;;;;8265881;28;20238;-67
2023/01/29 03:13:33;;;;;;;8.33;5.37;;;-2.60;84.90;;;;;;8269375;28;20194;-68
2023/01/29 03:17:43;;;;;;;9.80;6.10;;;-2.80;99.90;;;;;;8266305;28;20176;-67
2023/01/29 03:21:50;;;;;;;10.77;6.57;;;-2.90;99.90;;;;;;8265545;28;20211;-67
2023/01/29 03:34:47;;;;;;;9.40;5.77;;;-3.00;99.90;;;;;;8268081;28;20218;-66
2023/01/29 03:38:48;;;;;;;6.97;4.60;;;-3.00;99.90;;;;;;8262944;28;20192;-66
2023/01/29 03:43:10;;;;;;;9.83;5.30;;;-3.00;99.90;;;;;;8262463;28;20222;-66
2023/01/29 03:47:20;;;;;;;7.43;4.53;;;-3.00;99.90;;;;;;8260048;28;20179;-67
2023/01/29 03:51:26;;;;;;;8.50;5.10;;;-3.10;99.90;;;;;;8266904;28;20192;-67
2023/01/29 03:55:54;;;;;;;9.47;5.33;;;-3.00;99.90;;;;;;8270091;28;20228;-66
2023/01/29 04:00:11;;;;;;;9.97;5.10;;;-3.00;99.90;;;;;;8266788;28;20183;-66
2023/01/29 04:04:17;;;;;;;8.43;5.83;;;-3.20;99.90;;;;;;8270835;28;20195;-67
2023/01/29 04:08:27;;;;;;;8.13;4.97;;;-3.30;1.00;;;;;;8261682;28;20242;-67
2023/01/29 04:12:37;;;;;;;7.73;5.20;;;-3.30;1.00;;;;;;8268158;28;20183;-67
2023/01/29 04:16:43;;;;;;;7.90;4.77;;;-3.40;99.90;;;;;;8271819;28;20210;-66
2023/01/29 04:20:44;;;;;;;8.43;4.83;;;-3.40;99.90;;;;;;8273960;28;20237;-66
2023/01/29 04:24:47;;;;;;;10.30;5.57;;;-3.50;99.90;;;;;;8265900;28;20188;-67
2023/01/29 04:29:25;;;;;;;7.60;5.07;;;-3.40;1.00;;;;;;8271385;28;20188;-67
2023/01/29 04:33:57;;;;;;;8.10;5.23;;;-3.40;61.20;;;;;;8262682;28;20282;-66
2023/01/29 04:38:16;;;;;;;8.80;5.90;;;-3.30;1.00;;;;;;8284466;28;20198;-66
2023/01/29 04:42:54;;;;;;;9.60;6.07;;;-3.20;1.00;;;;;;8265267;28;20217;-64
2023/01/29 04:47:19;;;;;;;8.93;5.57;;;-3.20;99.90;;;;;;8262999;28;20213;-64
2023/01/29 04:51:38;;;;;;;9.83;5.90;;;-3.30;99.90;;;;;;8263836;28;20184;-65
2023/01/29 04:55:47;;;;;;;9.93;5.93;;;-3.30;99.90;;;;;;8266953;28;20199;-64
2023/01/29 04:59:58;;;;;;;8.97;5.00;;;-3.30;99.90;;;;;;8261818;28;20307;-64
2023/01/29 05:04:04;;;;;;;8.03;5.23;;;-3.40;99.90;;;;;;8268740;28;20179;-64
2023/01/29 05:08:06;;;;;;;9.03;5.73;;;-3.40;99.90;;;;;;8265609;28;20175;-63
2023/01/29 05:12:09;;;;;;;6.97;5.30;;;-3.40;99.90;;;;;;8260858;28;20198;-63
2023/01/29 05:16:20;;;;;;;9.10;6.07;;;-3.40;99.90;;;;;;8266996;28;20193;-64
2023/01/29 05:20:21;;;;;;;8.33;6.10;;;-3.40;99.90;;;;;;8266049;28;20243;-64
2023/01/29 05:24:23;;;;;;;9.27;6.27;;;-3.40;99.90;;;;;;8269183;28;20185;-64
2023/01/29 05:28:24;;;;;;;14.40;7.37;;;-3.30;99.90;;;;;;8265609;28;20187;-64
2023/01/29 05:32:25;;;;;;;10.97;6.67;;;-3.20;99.90;;;;;;8264513;28;20193;-64
2023/01/29 05:36:26;;;;;;;10.43;7.03;;;-3.10;55.80;;;;;;8256692;28;20210;-64
2023/01/29 05:40:27;;;;;;;11.43;6.97;;;-3.00;1.00;;;;;;8256938;28;20261;-64
2023/01/29 05:44:27;;;;;;;9.67;7.10;;;-2.80;99.90;;;;;;8262456;28;20191;-64
2023/01/29 05:48:30;;;;;;;9.00;6.33;;;-2.80;1.00;;;;;;8260467;28;20191;-65
2023/01/29 05:52:31;;;;;;;9.67;7.10;;;-2.60;1.00;;;;;;8267009;28;20183;-64
2023/01/29 05:56:32;;;;;;;10.97;6.83;;;-2.50;99.90;;;;;;8264529;28;20183;-64
2023/01/29 06:00:33;;;;;;;10.83;6.80;;;-2.40;99.90;;;;;;8263069;28;20219;-64
2023/01/29 06:04:33;;;;;;;9.77;6.37;;;-2.40;1.00;;;;;;8264373;28;20244;-64
2023/01/29 06:08:34;;;;;;;10.27;7.50;;;-2.30;1.00;;;;;;8268992;28;20348;-64
2023/01/29 06:12:35;;;;;;;11.23;7.53;;;-2.20;1.00;;;;;;8267991;28;20236;-64
2023/01/29 06:16:36;;;;;;;10.47;7.00;;;-2.10;99.90;;;;;;8266947;28;20190;-64
2023/01/29 06:20:38;;;;;;;12.73;7.13;;;-2.10;99.90;;;;;;8270137;28;20211;-64
2023/01/29 06:24:39;;;;;;;10.23;7.33;;;-2.10;99.90;;;;;;8272345;28;20180;-65
2023/01/29 06:28:40;;;;;;;11.23;7.60;;;-2.00;99.90;;;;;;8267752;28;20206;-64
2023/01/29 06:32:41;;;;;;;13.47;8.00;;;-2.00;99.90;;;;;;8268567;28;20199;-64
2023/01/29 06:36:42;;;;;;;12.43;8.00;;;-2.00;99.90;;;;;;8271434;28;20553;-65
2023/01/29 06:40:42;;;;;;;13.87;7.87;;;-1.90;99.90;;;;;;8269496;28;20216;-64
2023/01/29 06:44:43;;;;;;;11.23;7.53;;;-2.00;99.90;;;;;;8268024;28;20189;-64
2023/01/29 06:48:44;;;;;;;10.20;6.93;;;-2.00;99.90;;;;;;8264160;28;20351;-64
2023/01/29 06:52:45;;;;;;;9.33;6.07;;;-2.00;99.90;;;;;;8269227;28;20216;-71
2023/01/29 06:56:46;;;;;;;10.83;6.70;;;-1.90;99.90;;;;;;8267122;28;20188;-70
2023/01/29 07:00:47;;;;;;;9.77;6.30;;;-1.80;92.10;;;;;;8269004;28;20208;-70
2023/01/29 07:04:47;;;;;;;6.87;5.43;;;-1.80;99.90;;;;;;8266969;28;20220;-70
2023/01/29 07:08:48;;;;;;;8.73;5.37;;;-1.80;99.90;;;;;;8269951;28;20183;-70
2023/01/29 07:12:49;;;;;;;8.47;5.93;;;-1.80;99.90;;;;;;8273655;28;20472;-70
2023/01/29 07:16:50;;;;;;;8.33;5.83;;;-1.70;99.90;;;;;;8265881;28;20196;-71
2023/01/29 07:20:50;;;;;;;8.73;5.73;;;-1.70;99.90;;;;;;8267256;28;20224;-69
2023/01/29 07:24:51;;;;;;;7.33;6.00;;;-1.60;99.90;;;;;;8266813;28;20212;-71
2023/01/29 07:28:52;;;;;;;8.47;6.10;;;-1.60;99.90;;;;;;8273377;28;20192;-71
2023/01/29 07:32:53;;;;;;;9.97;6.40;;;-1.40;95.40;;;;;;8268026;28;20284;-70
2023/01/29 07:36:55;;;;;;;8.40;5.90;;;-1.40;59.10;;;;;;8267917;28;20271;-72
2023/01/29 07:40:56;;;;;;;9.90;6.87;;;-1.20;10.60;;;;;;8268499;28;20226;-70
2023/01/29 07:44:57;;;;;;;10.63;7.53;;;-1.20;1.00;;;;;;8268905;28;20191;-70
2023/01/29 07:48:58;;;;;;;11.37;7.10;;;-1.10;1.00;;;;;;8264660;28;20448;-70
2023/01/29 07:52:59;;;;;;;10.60;7.67;;;-0.90;1.00;;;;;;8268468;28;20196;-70
2023/01/29 07:57:00;;;;;;;12.00;7.00;;;-0.90;1.00;;;;;;8270565;28;20197;-70
2023/01/29 08:01:06;;;;;;;12.10;7.27;;;-0.90;1.00;;;;;;8269987;28;20206;-70
2023/01/29 08:05:07;;;;;;;10.53;7.57;;;-0.80;1.00;;;;;;8266320;28;20263;-70
2023/01/29 08:09:09;;;;;;;12.33;8.40;;;-0.70;1.00;;;;;;8263464;28;20198;-70
2023/01/29 08:13:10;;;;;;;11.70;7.27;;;-0.70;1.00;;;;;;8265476;28;20257;-70
2023/01/29 08:17:12;;;;;;;10.90;7.77;;;-0.70;1.00;;;;;;8267817;28;20213;-70
2023/01/29 08:21:13;;;;;;;9.27;6.93;;;-0.70;1.00;;;;;;8264715;28;20218;-70
2023/01/29 08:25:15;;;;;;;11.63;8.40;;;-0.70;1.00;;;;;;8265926;28;20182;-71
2023/01/29 08:29:16;;;;;;;10.27;7.80;;;-0.70;1.00;;;;;;8266661;28;20188;-71
2023/01/29 08:33:17;;;;;;;11.63;7.97;;;-0.60;1.00;;;;;;8268241;28;20191;-71
2023/01/29 08:37:17;;;;;;;11.90;8.10;;;-0.40;1.00;;;;;;8263055;28;20215;-71
2023/01/29 08:41:18;;;;;;;12.77;8.67;;;-0.30;1.00;;;;;;8273742;28;20221;-72
2023/01/29 08:45:19;;;;;;;14.53;8.57;;;-0.30;1.00;;;;;;8267227;28;20215;-72
2023/01/29 08:49:20;;;;;;;14.43;8.70;;;-0.20;1.00;;;;;;8267371;28;20187;-72
2023/01/29 08:53:23;;;;;;;13.57;8.40;;;0.00;99.90;;;;;;8267618;28;20273;-71
2023/01/29 08:57:24;;;;;;;13.07;7.90;;;0.20;99.90;;;;;;8267980;28;20507;-71
2023/01/29 09:01:25;;;;;;;11.00;8.07;;;0.40;99.90;;;;;;8268765;28;20219;-71
2023/01/29 09:05:29;;;;;;;11.27;8.40;;;0.40;99.90;;;;;;8282443;28;20187;-73
2023/01/29 09:09:29;;;;;;;13.77;8.10;;;0.50;99.90;;;;;;8271921;28;20194;-71
2023/01/29 09:13:30;;;;;;;12.20;8.37;;;0.60;99.90;;;;;;8268667;28;20187;-72
2023/01/29 09:17:31;;;;;;;12.97;8.50;;;0.70;99.90;;;;;;8266083;28;20192;-72
2023/01/29 09:21:32;;;;;;;12.43;8.43;;;0.80;99.90;;;;;;8270048;28;20297;-72
2023/01/29 09:25:33;;;;;;;13.53;9.00;;;0.80;99.90;;;;;;8266305;28;20202;-73
2023/01/29 09:29:34;;;;;;;10.83;8.00;;;0.50;99.90;;;;;;8270183;28;20210;-73
2023/01/29 09:33:35;;;;;;;12.67;8.73;;;0.60;99.90;;;;;;8268673;28;20195;-72
2023/01/29 09:37:35;;;;;;;10.70;8.07;;;0.60;99.90;;;;;;8269188;28;20234;-72
2023/01/29 09:42:07;;;;;;;12.27;8.50;;;0.70;99.90;;;;;;8274882;28;20212;-71
2023/01/29 09:46:35;;;;;;;12.00;8.20;;;0.70;99.90;;;;;;8279200;28;20188;-72
2023/01/29 09:50:47;;;;;;;12.87;8.37;;;0.80;99.90;;;;;;8278962;28;20476;-71
2023/01/29 09:55:10;;;;;;;12.93;8.77;;;0.80;99.90;;;;;;8285873;28;20214;-71
2023/01/29 09:59:13;;;;;;;15.13;8.57;;;1.00;99.90;;;;;;8298525;28;20183;-70
2023/01/29 10:03:39;;;;;;;12.23;8.63;;;1.20;99.90;;;;;;8302238;28;20246;-72
2023/01/29 10:08:18;;;;;;;12.67;7.90;;;1.40;99.90;;;;;;8288200;28;20180;-72
2023/01/29 10:12:25;;;;;;;11.97;8.57;;;1.40;99.90;;;;;;8289719;28;20196;-72
2023/01/29 10:16:31;;;;;;;12.17;8.63;;;1.50;99.90;;;;;;8287410;28;20259;-72
2023/01/29 10:20:41;;;;;;;12.53;8.60;;;1.40;99.90;;;;;;8284155;28;20209;-72
2023/01/29 10:24:51;;;;;;;12.80;8.03;;;1.40;99.90;;;;;;8276063;28;20191;-69
2023/01/29 10:28:56;;;;;;;12.47;9.23;;;1.50;99.90;;;;;;8276656;28;20273;-71
2023/01/29 10:33:02;;;;;;;12.37;8.60;;;1.40;99.90;;;;;;8272270;28;20223;-72
2023/01/29 10:37:18;;;;;;;12.80;8.63;;;1.40;99.90;;;;;;8266922;28;20211;-72
2023/01/29 10:41:19;;;;;;;13.17;8.60;;;1.30;99.90;;;;;;8272019;28;20212;-69
2023/01/29 10:45:29;;;;;;;14.03;9.07;;;1.30;99.90;;;;;;8267646;28;20199;-70
2023/01/29 10:49:54;;;;;;;14.00;8.93;;;1.20;99.90;;;;;;8266636;28;20501;-69
2023/01/29 10:54:39;;;;;;;12.23;8.43;;;1.30;99.90;;;;;;8270882;28;20195;-70
2023/01/29 10:59:04;;;;;;;13.43;8.30;;;1.30;99.90;;;;;;8276328;28;20294;-70
2023/01/29 11:03:29;;;;;;;11.70;8.37;;;1.40;99.90;;;;;;8274717;28;20290;-70
2023/01/29 11:07:30;;;;;;;12.87;8.50;;;1.40;99.90;;;;;;8275097;28;20254;-70
2023/01/29 11:11:53;;;;;;;12.37;8.27;;;1.40;99.90;;;;;;8270237;28;20215;-70
2023/01/29 11:15:54;;;;;;;14.97;8.57;;;1.40;99.90;;;;;;8269975;28;20269;-69
2023/01/29 11:19:55;;;;;;;11.50;8.03;;;1.40;99.90;;;;;;8270590;28;20260;-70
2023/01/29 11:24:17;;;;;;;17.43;10.37;;;1.30;99.90;;;;;;8274283;28;20269;-70
2023/01/29 11:28:45;;;;;;;15.80;9.90;;;1.20;99.90;;;;;;8268184;28;20194;-70
2023/01/29 11:33:19;;;;;;;14.23;8.93;;;1.30;99.90;;;;;;8264391;28;20187;-70
2023/01/29 11:37:20;;;;;;;12.83;8.90;;;1.30;99.90;;;;;;8270482;28;20228;-69
2023/01/29 11:41:21;;;;;;;15.17;9.80;;;1.40;99.90;;;;;;8268841;28;20246;-70
2023/01/29 11:45:21;;;;;;;14.93;8.93;;;1.60;99.90;;;;;;8264386;28;20183;-69
2023/01/29 11:49:31;;;;;;;15.33;9.23;;;1.70;99.90;;;;;;8268014;28;20294;-69
2023/01/29 11:53:32;;;;;;;15.97;9.47;;;1.80;99.90;;;;;;8271637;28;20188;-69
2023/01/29 11:57:37;;;;;;;14.77;9.43;;;1.90;99.90;;;;;;8275255;28;20258;-69
2023/01/29 12:01:40;;;;;;;14.23;9.77;;;1.80;99.90;;;;;;8272504;28;20218;-69
2023/01/29 12:05:53;;;;;;;13.97;9.50;;;1.80;99.90;;;;;;8270159;28;20198;-69
2023/01/29 12:09:57;;;;;;;14.27;9.47;;;2.00;99.90;;;;;;8263073;28;20183;-69
2023/01/29 12:14:02;;;;;;;12.37;8.80;;;2.00;99.90;;;;;;8267728;28;20187;-69
2023/01/29 12:18:34;;;;;;;15.13;9.83;;;2.10;99.90;;;;;;8267035;28;20219;-69
2023/01/29 12:22:57;;;;;;;12.10;8.43;;;2.00;99.90;;;;;;8270017;28;20283;-69
2023/01/29 12:27:14;;;;;;;11.77;8.47;;;2.10;99.90;;;;;;8267779;28;20193;-69
2023/01/29 12:31:25;;;;;;;13.67;9.33;;;2.20;99.90;;;;;;8270187;28;20184;-68
2023/01/29 12:35:42;;;;;;;11.00;8.37;;;1.90;99.90;;;;;;8265344;28;20553;-69
2023/01/29 12:39:43;;;;;;;15.60;10.17;;;1.90;1.00;;;;;;8265923;28;20230;-68
2023/01/29 12:43:51;;;;;;;14.80;10.47;;;1.50;1.00;;;;;;8265624;28;20223;-69
2023/01/29 12:48:05;;;;;;;14.03;8.50;;;1.50;1.00;;;;;;8271287;28;20188;-68
2023/01/29 12:52:06;;;;;;;13.17;9.27;;;1.70;1.00;;;;;;8267418;28;20246;-69
2023/01/29 12:56:13;;;;;;;13.00;9.33;;;2.00;1.00;;;;;;8267527;28;20194;-68
2023/01/29 13:00:21;;;;;;;15.10;9.03;;;2.10;1.00;;;;;;8262110;28;20187;-68
2023/01/29 13:04:30;;;;;;;11.97;8.27;;;2.00;1.00;;;;;;8268954;28;20183;-68
2023/01/29 13:08:53;;;;;;;12.90;8.70;;;2.00;1.00;;;;;;8264112;28;20459;-69
2023/01/29 13:13:24;;;;;;;10.30;8.40;;;2.10;1.00;;;;;;8266174;28;20181;-69
2023/01/29 13:17:43;;;;;;;13.60;8.80;;;2.00;1.00;;;;;;8262785;28;20191;-69
2023/01/29 13:21:46;;;;;;;12.33;9.33;;;2.00;1.00;;;;;;8266109;28;20211;-69
2023/01/29 13:25:56;;;;;;;13.50;8.73;;;2.00;1.00;;;;;;8264696;28;20325;-68
2023/01/29 13:29:59;;;;;;;12.20;9.03;;;2.00;1.00;;;;;;8260899;28;20488;-69
2023/01/29 13:34:13;;;;;;;14.27;9.33;;;1.90;1.00;;;;;;8264476;28;20214;-69
2023/01/29 13:38:44;;;;;;;11.60;8.33;;;2.00;1.00;;;;;;8264103;28;20287;-69
2023/01/29 13:42:47;;;;;;;12.77;8.57;;;2.00;1.00;;;;;;8264805;28;20266;-69
2023/01/29 13:47:04;;;;;;;13.17;8.77;;;2.20;1.00;;;;;;8264187;28;20179;-68
2023/01/29 13:51:14;;;;;;;11.70;8.43;;;2.30;1.00;;;;;;8265428;28;20177;-68
2023/01/29 13:55:21;;;;;;;13.10;8.93;;;2.30;1.00;;;;;;8263342;28;20216;-69
2023/01/29 13:59:42;;;;;;;14.67;8.67;;;1.90;1.00;;;;;;8266111;28;20275;-69
2023/01/29 14:03:44;;;;;;;13.83;9.50;;;1.60;46.70;;;;;;8263170;28;20211;-68
2023/01/29 14:07:45;;;;;;;15.03;10.00;;;1.60;95.80;;;;;;8265385;28;20183;-69
2023/01/29 14:11:49;;;;;;;11.60;8.07;;;1.50;99.90;;;;;;8262775;28;20195;-69
2023/01/29 14:15:55;;;;;;;14.57;9.80;;;1.50;99.90;;;;;;8260587;28;20261;-69
2023/01/29 14:20:18;;;;;;;11.53;9.10;;;1.40;99.90;;;;;;8258303;28;20254;-69
2023/01/29 14:24:22;;;;;;;14.93;9.43;;;1.20;99.90;;;;;;8261198;28;20215;-69
2023/01/29 14:28:27;;;;;;;11.10;8.53;;;1.10;99.90;;;;;;8263168;28;20191;-69
2023/01/29 14:32:29;;;;;;;11.97;8.73;;;1.00;99.90;;;;;;8270922;28;20293;-69
2023/01/29 14:36:39;;;;;;;14.43;9.03;;;1.10;99.90;;;;;;8270210;28;20250;-70
2023/01/29 14:40:43;;;;;;;12.80;8.97;;;1.10;99.90;;;;;;8272098;28;20282;-70
2023/01/29 14:44:53;;;;;;;12.33;8.83;;;1.10;99.90;;;;;;8274332;28;20527;-70
2023/01/29 14:48:54;;;;;;;12.33;9.30;;;1.00;99.90;;;;;;8273359;28;20195;-70
2023/01/29 14:53:22;;;;;;;11.73;7.60;;;1.00;99.90;;;;;;8265879;28;20206;-69
2023/01/29 14:57:23;;;;;;;16.40;9.37;;;1.10;99.90;;;;;;8265434;28;20195;-69
2023/01/29 15:01:37;;;;;;;14.30;8.93;;;1.00;1.00;;;;;;8270211;28;20207;-70
2023/01/29 15:05:39;;;;;;;11.50;8.77;;;0.90;99.90;;;;;;8271409;28;20195;-71
2023/01/29 15:09:49;;;;;;;14.73;9.90;;;0.80;99.90;;;;;;8268394;28;20218;-70
2023/01/29 15:13:55;;;;;;;14.97;9.67;;;0.60;63.60;;;;;;8275788;28;20341;-70
2023/01/29 15:18:12;;;;;;;17.27;10.27;;;0.50;1.00;;;;;;8267287;28;20245;-70
2023/01/29 15:22:16;;;;;;;15.40;10.00;;;0.50;99.90;;;;;;8268251;28;20208;-69
2023/01/29 15:26:22;;;;;;;14.60;10.50;;;0.40;99.90;;;;;;8267804;28;20218;-70
2023/01/29 15:30:31;;;;;;;15.70;10.53;;;0.40;99.90;;;;;;8269691;28;20276;-69
2023/01/29 15:34:32;;;;;;;16.70;11.37;;;0.30;1.00;;;;;;8272573;28;20222;-69
2023/01/29 15:38:35;;;;;;;16.73;10.87;;;0.30;1.00;;;;;;8269373;28;20203;-70
2023/01/29 15:42:47;;;;;;;15.40;10.97;;;0.30;99.90;;;;;;8264161;28;20215;-70
2023/01/29 15:46:55;;;;;;;19.07;11.10;;;0.30;1.00;;;;;;8265387;28;20184;-69
2023/01/29 15:50:56;;;;;;;12.47;9.10;;;0.20;1.00;;;;;;8266213;28;20600;-70
2023/01/29 15:55:03;;;;;;;15.37;10.23;;;0.20;1.00;;;;;;8265757;28;20219;-70
2023/01/29 15:59:07;;;;;;;16.07;11.07;;;0.20;96.10;;;;;;8271386;28;20192;-70
2023/01/29 16:03:14;;;;;;;16.23;10.63;;;0.20;1.00;;;;;;8268864;28;20208;-70
2023/01/29 16:07:15;;;;;;;16.93;10.93;;;0.20;73.30;;;;;;8263484;28;20191;-64
2023/01/29 16:11:18;;;;;;;14.80;10.13;;;0.20;1.00;;;;;;8271219;28;20191;-64
2023/01/29 16:15:32;;;;;;;15.87;10.43;;;0.20;99.90;;;;;;8267484;28;20192;-64
2023/01/29 16:19:33;;;;;;;14.03;10.50;;;0.10;1.00;;;;;;8277472;28;20192;-63
2023/01/29 16:23:40;;;;;;;16.90;10.80;;;0.10;1.00;;;;;;8261577;28;20214;-64
2023/01/29 16:27:43;;;;;;;17.77;11.03;;;0.10;1.00;;;;;;8262694;28;20230;-64
2023/01/29 16:31:46;;;;;;;16.17;10.60;;;0.10;1.00;;;;;;8259990;28;20207;-64
2023/01/29 16:35:51;;;;;;;15.77;10.73;;;0.10;1.00;;;;;;8263154;28;20218;-64
2023/01/29 16:39:52;;;;;;;18.97;11.37;;;0.10;1.00;;;;;;8274833;28;20203;-63
2023/01/29 16:43:58;;;;;;;17.27;11.17;;;0.00;1.00;;;;;;8265174;28;20219;-64
2023/01/29 16:48:01;;;;;;;18.20;11.33;;;0.00;99.90;;;;;;8276554;28;20242;-64
2023/01/29 16:52:26;;;;;;;16.57;11.97;;;-0.20;99.90;;;;;;8263703;28;20196;-64
2023/01/29 16:56:31;;;;;;;17.83;11.40;;;-0.30;99.90;;;;;;8265994;28;20214;-64
2023/01/29 17:00:32;;;;;;;20.60;11.57;;;-0.40;99.90;;;;;;8268956;28;20184;-64
2023/01/29 17:04:33;;;;;;;17.80;11.37;;;-0.50;1.00;;;;;;8268142;28;20186;-63
2023/01/29 17:08:35;;;;;;;19.57;12.17;;;-0.50;1.00;;;;;;8265152;28;20191;-64
2023/01/29 17:12:37;;;;;;;20.70;12.27;;;-0.60;1.00;;;;;;8274072;28;20267;-63
2023/01/29 17:17:13;;;;;;;17.13;11.33;;;-0.60;99.90;;;;;;8263913;28;20254;-63
2023/01/29 17:21:14;;;;;;;22.40;11.30;;;-0.60;99.90;;;;;;8267101;28;20206;-61
2023/01/29 17:25:15;;;;;;;21.23;11.97;;;-0.60;99.90;;;;;;8265799;28;20175;-63
2023/01/29 17:29:19;;;;;;;17.67;11.23;;;-0.50;99.90;;;;;;8263064;28;20183;-64
2023/01/29 17:33:24;;;;;;;20.73;12.50;;;-0.40;91.80;;;;;;8263368;28;20183;-63
2023/01/29 17:37:26;;;;;;;18.53;11.47;;;-0.40;1.00;;;;;;8265491;28;20203;-63
2023/01/29 17:41:31;;;;;;;22.27;12.67;;;-0.30;1.00;;;;;;8261699;28;20239;-63
2023/01/29 17:45:32;;;;;;;21.07;12.40;;;-0.20;1.00;;;;;;8258842;28;20190;-62
2023/01/29 17:49:36;;;;;;;21.60;11.30;;;-0.10;1.00;;;;;;8266187;28;20180;-62
2023/01/29 17:53:38;;;;;;;17.37;11.53;;;-0.10;99.90;;;;;;8269120;28;20533;-62
2023/01/29 17:57:39;;;;;;;17.77;11.20;;;0.00;99.90;;;;;;8260249;28;20319;-62
2023/01/29 18:01:40;;;;;;;17.03;10.93;;;0.00;99.90;;;;;;8269777;28;20204;-61
2023/01/29 18:05:45;;;;;;;20.07;11.77;;;0.00;99.90;;;;;;8269889;28;20174;-62
2023/01/29 18:09:47;;;;;;;14.37;10.67;;;0.00;99.90;;;;;;8271978;28;20197;-62
2023/01/29 18:13:47;;;;;;;17.73;10.73;;;0.10;99.90;;;;;;8268935;28;20184;-63
2023/01/29 18:17:50;;;;;;;18.33;11.67;;;0.10;99.90;;;;;;8270774;28;20242;-62
2023/01/29 18:21:53;;;;;;;15.37;9.87;;;0.00;99.90;;;;;;8266708;28;20203;-61
2023/01/29 18:25:56;;;;;;;17.07;10.97;;;0.00;99.90;;;;;;8272218;28;20186;-63
2023/01/29 18:29:57;;;;;;;16.27;10.23;;;0.10;99.90;;;;;;8272172;28;20369;-63
2023/01/29 18:33:58;;;;;;;14.27;9.53;;;0.10;99.90;;;;;;8272338;28;20187;-62
2023/01/29 18:37:59;;;;;;;17.77;10.93;;;0.10;98.80;;;;;;8267421;28;20215;-62
2023/01/29 18:42:00;;;;;;;15.07;9.43;;;0.10;99.90;;;;;;8272743;28;20211;-62
2023/01/29 18:46:01;;;;;;;15.47;9.87;;;0.10;79.00;;;;;;8271204;28;20268;-62
2023/01/29 18:50:04;;;;;;;15.53;9.33;;;0.20;76.00;;;;;;8272108;28;20183;-62
2023/01/29 18:54:05;;;;;;;17.40;10.53;;;0.10;72.50;;;;;;8267150;28;20192;-62
2023/01/29 18:58:06;;;;;;;14.67;9.60;;;0.10;37.80;;;;;;8272546;28;20280;-62
2023/01/29 19:02:10;;;;;;;16.67;9.40;;;0.10;1.00;;;;;;8265780;28;20279;-62
2023/01/29 19:06:11;;;;;;;13.80;8.43;;;0.10;1.00;;;;;;8266092;28;20274;-62
2023/01/29 19:10:14;;;;;;;13.23;8.60;;;-0.10;1.00;;;;;;8264788;28;20247;-62
2023/01/29 19:14:15;;;;;;;17.60;9.97;;;-0.20;18.20;;;;;;8263048;28;20183;-62
2023/01/29 19:18:16;;;;;;;14.33;9.10;;;-0.40;65.00;;;;;;8269272;28;20255;-63
2023/01/29 19:22:17;;;;;;;17.17;10.43;;;-0.50;97.20;;;;;;8273036;28;20285;-62
2023/01/29 19:26:18;;;;;;;16.13;10.33;;;-0.50;99.90;;;;;;8268140;28;20191;-63
2023/01/29 19:30:19;;;;;;;14.10;9.87;;;-0.50;99.90;;;;;;8271254;28;20195;-62
2023/01/29 19:34:20;;;;;;;14.20;9.97;;;-0.50;99.90;;;;;;8268744;28;20230;-62
2023/01/29 19:38:21;;;;;;;15.70;10.53;;;-0.50;99.90;;;;;;8263961;28;20194;-62
2023/01/29 19:42:22;;;;;;;18.27;11.13;;;-0.50;99.90;;;;;;8270840;28;20211;-62
2023/01/29 19:46:23;;;;;;;21.23;10.13;;;-0.50;99.90;;;;;;8263931;28;20194;-63
2023/01/29 19:50:24;;;;;;;17.03;10.47;;;-0.50;99.90;;;;;;8267298;28;20187;-62
2023/01/29 19:54:26;;;;;;;21.17;11.20;;;-0.50;99.90;;;;;;8267457;28;20189;-62
2023/01/29 19:58:28;;;;;;;16.60;10.23;;;-0.50;99.90;;;;;;8265262;28;20193;-63
2023/01/29 20:02:31;;;;;;;17.30;11.00;;;-0.40;99.80;;;;;;8266109;28;20242;-62
2023/01/29 20:06:32;;;;;;;17.50;10.30;;;-0.30;26.80;;;;;;8265532;28;20180;-62
2023/01/29 20:10:32;;;;;;;15.10;9.90;;;-0.30;12.30;;;;;;8266440;28;20191;-62
2023/01/29 20:14:33;;;;;;;15.40;9.40;;;-0.20;1.00;;;;;;8267513;28;20184;-63
2023/01/29 20:18:34;;;;;;;12.33;8.67;;;-0.20;6.40;;;;;;8263159;28;20214;-62
2023/01/29 20:22:35;;;;;;;14.47;8.70;;;-0.30;1.00;;;;;;8268470;28;20206;-62
2023/01/29 20:26:36;;;;;;;12.57;8.93;;;-0.20;1.00;;;;;;8265179;28;20233;-62
2023/01/29 20:30:39;;;;;;;15.93;9.17;;;-0.20;1.00;;;;;;8261868;28;20187;-62
2023/01/29 20:34:40;;;;;;;14.47;8.23;;;-0.30;1.00;;;;;;8266138;28;20880;-62
2023/01/29 20:38:41;;;;;;;16.17;9.23;;;-0.20;1.00;;;;;;8261783;28;20184;-62
2023/01/29 20:42:43;;;;;;;13.60;8.70;;;-0.20;1.00;;;;;;8260676;28;20547;-62
2023/01/29 20:46:45;;;;;;;14.73;9.17;;;-0.20;1.00;;;;;;8261807;28;20175;-63
2023/01/29 20:50:47;;;;;;;15.17;7.90;;;-0.20;1.00;;;;;;8265236;28;20179;-61
2023/01/29 20:54:48;;;;;;;12.03;8.43;;;-0.10;1.00;;;;;;8266040;28;20237;-62
2023/01/29 20:58:49;;;;;;;11.50;7.33;;;-0.10;1.00;;;;;;8266317;28;20262;-62
2023/01/29 21:02:50;;;;;;;12.50;7.67;;;0.00;1.00;;;;;;8265266;28;20713;-64
2023/01/29 21:06:51;;;;;;;11.53;7.43;;;0.00;1.00;;;;;;8270169;28;20508;-63
2023/01/29 21:10:52;;;;;;;13.80;7.87;;;0.00;1.00;;;;;;8261558;28;20497;-63
2023/01/29 21:14:53;;;;;;;12.73;7.47;;;0.00;1.00;;;;;;8264631;28;20182;-63
2023/01/29 21:18:55;;;;;;;12.23;7.80;;;0.10;1.00;;;;;;8262601;28;20186;-62
2023/01/29 21:22:56;;;;;;;11.97;7.80;;;0.10;1.00;;;;;;8263527;28;20233;-63
2023/01/29 21:26:57;;;;;;;9.83;7.20;;;0.10;1.00;;;;;;8262991;28;20183;-63
2023/01/29 21:31:16;;;;;;;9.50;6.70;;;0.10;1.00;;;;;;8264633;28;20539;-62
2023/01/29 21:35:17;;;;;;;12.33;7.53;;;0.20;1.00;;;;;;8262671;28;20207;-63
2023/01/29 21:39:19;;;;;;;10.90;7.50;;;0.20;1.00;;;;;;8258654;28;20614;-63
2023/01/29 21:43:20;;;;;;;12.80;7.33;;;0.20;1.00;;;;;;8262610;28;20249;-62
2023/01/29 21:47:21;;;;;;;12.53;7.00;;;0.20;1.00;;;;;;8265918;28;20239;-62